createdAt,value
2022-12-03T00:00:08.896Z,52.500000
2022-12-03T00:01:00.249Z,310.000000
2022-12-03T00:02:00.351Z,310.000000
2022-12-03T00:03:00.464Z,310.000000
2022-12-03T00:04:00.562Z,30.000000
2022-12-03T00:05:03.701Z,30.000000
2022-12-03T00:06:00.360Z,62.500000
2022-12-03T00:07:00.276Z,62.500000
2022-12-03T00:08:00.459Z,62.500000
2022-12-03T00:09:00.318Z,285.000000
2022-12-03T00:10:03.784Z,285.000000
2022-12-03T00:11:00.320Z,285.000000
2022-12-03T00:12:00.403Z,15.000000
2022-12-03T00:13:00.315Z,15.000000
2022-12-03T00:14:00.389Z,85.000000
2022-12-03T00:15:03.734Z,85.000000
2022-12-03T00:16:00.506Z,52.500000
2022-12-03T00:17:00.362Z,52.500000
2022-12-03T00:18:00.459Z,15.000000
2022-12-03T00:19:00.377Z,15.000000
2022-12-03T00:20:03.808Z,15.000000
2022-12-03T00:21:00.378Z,25.000000
2022-12-03T00:22:00.498Z,25.000000
2022-12-03T00:23:00.402Z,25.000000
2022-12-03T00:24:00.475Z,25.000000
2022-12-03T00:25:03.636Z,25.000000
2022-12-03T00:26:00.474Z,120.000000
2022-12-03T00:27:00.429Z,120.000000
2022-12-03T00:28:00.519Z,115.000000
2022-12-03T00:29:00.440Z,115.000000
2022-12-03T00:30:03.874Z,115.000000
2022-12-03T00:31:00.516Z,122.500000
2022-12-03T00:32:00.511Z,122.500000
2022-12-03T00:33:00.474Z,122.500000
2022-12-03T00:34:00.718Z,140.000000
2022-12-03T00:35:03.682Z,140.000000
2022-12-03T00:36:00.541Z,127.500000
2022-12-03T00:37:00.480Z,127.500000
2022-12-03T00:38:00.550Z,127.500000
2022-12-03T00:39:00.499Z,120.000000
2022-12-03T00:40:03.814Z,120.000000
2022-12-03T00:41:00.485Z,120.000000
2022-12-03T00:42:00.609Z,125.000000
2022-12-03T00:43:00.513Z,125.000000
2022-12-03T00:44:00.603Z,110.000000
2022-12-03T00:45:03.786Z,110.000000
2022-12-03T00:46:00.691Z,110.000000
2022-12-03T00:47:00.724Z,77.500000
2022-12-03T00:48:00.642Z,77.500000
2022-12-03T00:49:00.532Z,47.500000
2022-12-03T00:50:05.594Z,47.500000
2022-12-03T00:51:00.578Z,47.500000
2022-12-03T00:52:00.662Z,115.000000
2022-12-03T00:53:00.688Z,115.000000
2022-12-03T00:54:00.689Z,147.500000
2022-12-03T00:55:03.716Z,147.500000
2022-12-03T00:56:00.668Z,147.500000
2022-12-03T00:57:00.641Z,140.000000
2022-12-03T00:58:00.723Z,140.000000
2022-12-03T00:59:00.633Z,140.000000
2022-12-03T01:00:05.143Z,115.000000
2022-12-03T01:01:00.677Z,115.000000
2022-12-03T01:02:00.833Z,110.000000
2022-12-03T01:03:00.687Z,110.000000
2022-12-03T01:04:00.774Z,110.000000
2022-12-03T01:05:03.856Z,132.500000
2022-12-03T01:06:00.826Z,132.500000
2022-12-03T01:07:00.720Z,132.500000
2022-12-03T01:08:00.832Z,120.000000
2022-12-03T01:09:00.741Z,120.000000
2022-12-03T01:10:04.477Z,95.000000
2022-12-03T01:11:00.727Z,95.000000
2022-12-03T01:12:00.852Z,107.500000
2022-12-03T01:13:00.729Z,107.500000
2022-12-03T01:14:00.802Z,115.000000
2022-12-03T01:15:03.843Z,115.000000
2022-12-03T01:16:00.948Z,115.000000
2022-12-03T01:17:00.769Z,120.000000
2022-12-03T01:18:00.882Z,120.000000
2022-12-03T01:19:00.782Z,120.000000
2022-12-03T01:20:04.150Z,105.000000
2022-12-03T01:21:00.800Z,105.000000
2022-12-03T01:22:00.916Z,112.500000
2022-12-03T01:23:00.806Z,112.500000
2022-12-03T01:24:00.900Z,112.500000
2022-12-03T01:25:03.780Z,115.000000
2022-12-03T01:26:00.904Z,115.000000
2022-12-03T01:27:00.831Z,115.000000
2022-12-03T01:28:00.926Z,115.000000
2022-12-03T01:29:00.852Z,115.000000
2022-12-03T01:30:04.355Z,102.500000
2022-12-03T01:31:00.908Z,102.500000
2022-12-03T01:32:00.954Z,102.500000
2022-12-03T01:33:00.892Z,107.500000
2022-12-03T01:34:01.015Z,107.500000
2022-12-03T01:35:03.779Z,110.000000
2022-12-03T01:36:01.008Z,110.000000
2022-12-03T01:37:00.905Z,115.000000
2022-12-03T01:38:01.045Z,115.000000
2022-12-03T01:39:00.915Z,115.000000
2022-12-03T01:40:04.519Z,120.000000
2022-12-03T01:41:00.916Z,120.000000
2022-12-03T01:42:01.019Z,120.000000
2022-12-03T01:43:00.922Z,107.500000
2022-12-03T01:44:01.022Z,107.500000
2022-12-03T01:45:05.791Z,110.000000
2022-12-03T01:46:01.048Z,110.000000
2022-12-03T01:47:01.089Z,120.000000
2022-12-03T01:48:01.050Z,120.000000
2022-12-03T01:49:00.998Z,120.000000
2022-12-03T01:50:04.228Z,110.000000
2022-12-03T01:51:01.047Z,110.000000
2022-12-03T01:52:01.077Z,110.000000
2022-12-03T01:53:01.001Z,85.000000
2022-12-03T01:54:01.155Z,85.000000
2022-12-03T01:55:04.084Z,107.500000
2022-12-03T01:56:01.102Z,107.500000
2022-12-03T01:57:01.079Z,107.500000
2022-12-03T01:58:01.120Z,147.500000
2022-12-03T01:59:01.066Z,147.500000
2022-12-03T02:00:04.753Z,100.000000
2022-12-03T02:01:01.093Z,100.000000
2022-12-03T02:02:01.256Z,117.500000
2022-12-03T02:03:01.104Z,117.500000
2022-12-03T02:04:01.205Z,117.500000
2022-12-03T02:05:04.162Z,120.000000
2022-12-03T02:06:01.221Z,120.000000
2022-12-03T02:07:01.113Z,97.500000
2022-12-03T02:08:01.315Z,97.500000
2022-12-03T02:09:01.144Z,125.000000
2022-12-03T02:10:04.470Z,125.000000
2022-12-03T02:11:01.263Z,125.000000
2022-12-03T02:12:01.236Z,127.500000
2022-12-03T02:13:01.168Z,127.500000
2022-12-03T02:14:01.248Z,127.500000
2022-12-03T02:15:04.182Z,107.500000
2022-12-03T02:16:00.417Z,107.500000
2022-12-03T02:17:00.191Z,107.500000
2022-12-03T02:18:00.270Z,117.500000
2022-12-03T02:19:00.203Z,117.500000
2022-12-03T02:20:03.825Z,100.000000
2022-12-03T02:21:00.220Z,100.000000
2022-12-03T02:22:00.290Z,100.000000
2022-12-03T02:23:00.211Z,117.500000
2022-12-03T02:24:00.348Z,117.500000
2022-12-03T02:25:03.115Z,117.500000
2022-12-03T02:26:00.368Z,117.500000
2022-12-03T02:27:00.266Z,117.500000
2022-12-03T02:28:00.333Z,120.000000
2022-12-03T02:29:00.277Z,120.000000
2022-12-03T02:30:03.718Z,112.500000
2022-12-03T02:31:00.389Z,112.500000
2022-12-03T02:32:00.445Z,112.500000
2022-12-03T02:33:00.329Z,115.000000
2022-12-03T02:34:00.360Z,115.000000
2022-12-03T02:35:03.676Z,120.000000
2022-12-03T02:36:03.607Z,120.000000
2022-12-03T02:37:00.344Z,120.000000
2022-12-03T02:38:00.437Z,125.000000
2022-12-03T02:39:00.350Z,125.000000
2022-12-03T02:40:05.271Z,120.000000
2022-12-03T02:41:00.369Z,120.000000
2022-12-03T02:42:00.665Z,120.000000
2022-12-03T02:43:00.355Z,110.000000
2022-12-03T02:44:00.470Z,110.000000
2022-12-03T02:45:05.626Z,110.000000
2022-12-03T02:46:00.729Z,110.000000
2022-12-03T02:47:00.471Z,110.000000
2022-12-03T02:48:00.507Z,110.000000
2022-12-03T02:49:00.419Z,110.000000
2022-12-03T02:50:03.840Z,110.000000
2022-12-03T02:51:00.465Z,107.500000
2022-12-03T02:52:00.521Z,107.500000
2022-12-03T02:53:00.448Z,130.000000
2022-12-03T02:54:00.531Z,130.000000
2022-12-03T02:55:03.621Z,100.000000
2022-12-03T02:56:00.577Z,100.000000
2022-12-03T02:57:00.491Z,100.000000
2022-12-03T02:58:00.576Z,102.500000
2022-12-03T02:59:00.490Z,102.500000
2022-12-03T03:00:04.292Z,102.500000
2022-12-03T03:01:00.592Z,117.500000
2022-12-03T03:02:00.613Z,117.500000
2022-12-03T03:03:00.510Z,125.000000
2022-12-03T03:04:00.592Z,125.000000
2022-12-03T03:05:03.761Z,105.000000
2022-12-03T03:06:00.620Z,105.000000
2022-12-03T03:07:00.548Z,105.000000
2022-12-03T03:08:00.754Z,115.000000
2022-12-03T03:09:00.567Z,115.000000
2022-12-03T03:10:04.036Z,115.000000
2022-12-03T03:11:00.578Z,100.000000
2022-12-03T03:12:00.657Z,100.000000
2022-12-03T03:13:00.614Z,100.000000
2022-12-03T03:14:00.740Z,107.500000
2022-12-03T03:15:03.702Z,107.500000
2022-12-03T03:16:00.731Z,125.000000
2022-12-03T03:17:00.629Z,125.000000
2022-12-03T03:18:00.712Z,127.500000
2022-12-03T03:19:00.647Z,127.500000
2022-12-03T03:20:05.209Z,127.500000
2022-12-03T03:21:00.690Z,105.000000
2022-12-03T03:22:00.734Z,105.000000
2022-12-03T03:23:00.682Z,105.000000
2022-12-03T03:24:00.762Z,105.000000
2022-12-03T03:25:03.631Z,105.000000
2022-12-03T03:26:00.782Z,122.500000
2022-12-03T03:27:00.718Z,122.500000
2022-12-03T03:28:00.774Z,105.000000
2022-12-03T03:29:00.720Z,105.000000
2022-12-03T03:30:04.186Z,105.000000
2022-12-03T03:31:00.742Z,122.500000
2022-12-03T03:32:00.879Z,122.500000
2022-12-03T03:33:00.746Z,122.500000
2022-12-03T03:34:00.815Z,122.500000
2022-12-03T03:35:05.451Z,122.500000
2022-12-03T03:36:00.851Z,147.500000
2022-12-03T03:37:00.777Z,147.500000
2022-12-03T03:38:00.882Z,215.000000
2022-12-03T03:39:00.797Z,215.000000
2022-12-03T03:40:03.875Z,215.000000
2022-12-03T03:41:00.813Z,85.000000
2022-12-03T03:42:00.890Z,85.000000
2022-12-03T03:43:00.836Z,85.000000
2022-12-03T03:44:00.957Z,115.000000
2022-12-03T03:45:04.164Z,115.000000
2022-12-03T03:46:01.019Z,115.000000
2022-12-03T03:47:00.862Z,110.000000
2022-12-03T03:48:00.935Z,110.000000
2022-12-03T03:49:00.858Z,112.500000
2022-12-03T03:50:04.404Z,112.500000
2022-12-03T03:51:00.882Z,120.000000
2022-12-03T03:52:00.932Z,120.000000
2022-12-03T03:53:00.899Z,120.000000
2022-12-03T03:54:00.978Z,145.000000
2022-12-03T03:55:04.004Z,145.000000
2022-12-03T03:56:00.993Z,145.000000
2022-12-03T03:57:00.918Z,127.500000
2022-12-03T03:58:00.980Z,127.500000
2022-12-03T03:59:00.909Z,120.000000
2022-12-03T04:00:05.518Z,120.000000
2022-12-03T04:01:00.985Z,125.000000
2022-12-03T04:02:01.055Z,125.000000
2022-12-03T04:03:00.947Z,125.000000
2022-12-03T04:04:01.115Z,110.000000
2022-12-03T04:05:03.910Z,110.000000
2022-12-03T04:06:08.190Z,110.000000
2022-12-03T04:07:00.967Z,100.000000
2022-12-03T04:08:01.241Z,100.000000
2022-12-03T04:09:00.974Z,100.000000
2022-12-03T04:10:04.436Z,95.000000
2022-12-03T04:11:00.999Z,95.000000
2022-12-03T04:12:01.082Z,115.000000
2022-12-03T04:13:01.003Z,115.000000
2022-12-03T04:14:01.140Z,120.000000
2022-12-03T04:15:03.977Z,120.000000
2022-12-03T04:16:01.088Z,120.000000
2022-12-03T04:17:01.162Z,112.500000
2022-12-03T04:18:01.149Z,112.500000
2022-12-03T04:19:01.055Z,112.500000
2022-12-03T04:20:04.539Z,115.000000
2022-12-03T04:21:01.095Z,115.000000
2022-12-03T04:22:01.118Z,117.500000
2022-12-03T04:23:01.076Z,117.500000
2022-12-03T04:24:01.153Z,120.000000
2022-12-03T04:25:04.076Z,120.000000
2022-12-03T04:26:01.174Z,120.000000
2022-12-03T04:27:01.124Z,115.000000
2022-12-03T04:28:01.171Z,115.000000
2022-12-03T04:29:01.115Z,115.000000
2022-12-03T04:30:06.300Z,130.000000
2022-12-03T04:31:01.199Z,130.000000
2022-12-03T04:32:01.265Z,122.500000
2022-12-03T04:33:01.156Z,122.500000
2022-12-03T04:34:01.276Z,122.500000
2022-12-03T04:35:04.452Z,110.000000
2022-12-03T04:36:00.395Z,110.000000
2022-12-03T04:37:00.185Z,105.000000
2022-12-03T04:38:00.296Z,105.000000
2022-12-03T04:39:00.211Z,105.000000
2022-12-03T04:40:03.848Z,110.000000
2022-12-03T04:41:00.219Z,110.000000
2022-12-03T04:42:00.308Z,110.000000
2022-12-03T04:43:00.217Z,110.000000
2022-12-03T04:44:00.321Z,110.000000
2022-12-03T04:45:03.111Z,112.500000
2022-12-03T04:46:00.345Z,112.500000
2022-12-03T04:47:00.260Z,107.500000
2022-12-03T04:48:00.349Z,107.500000
2022-12-03T04:49:00.256Z,107.500000
2022-12-03T04:50:03.875Z,125.000000
2022-12-03T04:51:00.290Z,125.000000
2022-12-03T04:52:00.369Z,105.000000
2022-12-03T04:53:00.275Z,105.000000
2022-12-03T04:54:00.402Z,105.000000
2022-12-03T04:55:03.612Z,125.000000
2022-12-03T04:56:00.425Z,125.000000
2022-12-03T04:57:00.327Z,65.000000
2022-12-03T04:58:00.393Z,65.000000
2022-12-03T04:59:00.320Z,145.000000
2022-12-03T05:00:04.145Z,145.000000
2022-12-03T05:01:00.368Z,145.000000
2022-12-03T05:02:00.548Z,137.500000
2022-12-03T05:03:00.465Z,137.500000
2022-12-03T05:04:00.462Z,137.500000
2022-12-03T05:05:03.666Z,125.000000
2022-12-03T05:06:00.482Z,125.000000
2022-12-03T05:07:00.404Z,107.500000
2022-12-03T05:08:00.538Z,107.500000
2022-12-03T05:09:00.434Z,117.500000
2022-12-03T05:10:03.850Z,117.500000
2022-12-03T05:11:00.418Z,117.500000
2022-12-03T05:12:00.517Z,107.500000
2022-12-03T05:13:00.423Z,107.500000
2022-12-03T05:14:00.544Z,107.500000
2022-12-03T05:15:03.614Z,120.000000
2022-12-03T05:16:00.506Z,120.000000
2022-12-03T05:17:00.470Z,135.000000
2022-12-03T05:18:00.551Z,135.000000
2022-12-03T05:19:00.461Z,125.000000
2022-12-03T05:20:03.903Z,125.000000
2022-12-03T05:21:00.485Z,125.000000
2022-12-03T05:22:00.683Z,122.500000
2022-12-03T05:23:00.484Z,122.500000
2022-12-03T05:24:00.577Z,122.500000
2022-12-03T05:25:05.279Z,125.000000
2022-12-03T05:26:00.599Z,125.000000
2022-12-03T05:27:00.531Z,125.000000
2022-12-03T05:28:00.589Z,127.500000
2022-12-03T05:29:00.527Z,127.500000
2022-12-03T05:30:03.975Z,115.000000
2022-12-03T05:31:00.625Z,115.000000
2022-12-03T05:32:00.621Z,120.000000
2022-12-03T05:33:00.572Z,120.000000
2022-12-03T05:34:00.642Z,120.000000
2022-12-03T05:35:04.863Z,110.000000
2022-12-03T05:36:00.677Z,110.000000
2022-12-03T05:37:00.616Z,110.000000
2022-12-03T05:38:00.701Z,75.000000
2022-12-03T05:39:00.606Z,75.000000
2022-12-03T05:40:05.127Z,90.000000
2022-12-03T05:41:00.637Z,90.000000
2022-12-03T05:42:00.715Z,112.500000
2022-12-03T05:43:00.662Z,112.500000
2022-12-03T05:44:00.706Z,112.500000
2022-12-03T05:45:03.752Z,117.500000
2022-12-03T05:46:00.802Z,117.500000
2022-12-03T05:47:00.657Z,117.500000
2022-12-03T05:48:00.745Z,110.000000
2022-12-03T05:49:00.680Z,110.000000
2022-12-03T05:50:04.083Z,110.000000
2022-12-03T05:51:00.689Z,105.000000
2022-12-03T05:52:00.771Z,105.000000
2022-12-03T05:53:00.682Z,110.000000
2022-12-03T05:54:00.859Z,110.000000
2022-12-03T05:55:03.752Z,112.500000
2022-12-03T05:56:00.796Z,112.500000
2022-12-03T05:57:00.748Z,112.500000
2022-12-03T05:58:00.792Z,120.000000
2022-12-03T05:59:00.749Z,120.000000
2022-12-03T06:00:05.497Z,112.500000
2022-12-03T06:01:00.815Z,112.500000
2022-12-03T06:02:00.943Z,112.500000
2022-12-03T06:03:00.957Z,97.500000
2022-12-03T06:04:01.019Z,97.500000
2022-12-03T06:05:04.110Z,117.500000
2022-12-03T06:06:00.960Z,117.500000
2022-12-03T06:07:00.847Z,117.500000
2022-12-03T06:08:00.981Z,127.500000
2022-12-03T06:09:01.037Z,127.500000
2022-12-03T06:10:05.399Z,127.500000
2022-12-03T06:11:00.871Z,112.500000
2022-12-03T06:12:00.984Z,112.500000
2022-12-03T06:13:00.905Z,115.000000
2022-12-03T06:14:01.085Z,115.000000
2022-12-03T06:15:04.079Z,115.000000
2022-12-03T06:16:01.066Z,120.000000
2022-12-03T06:17:00.932Z,120.000000
2022-12-03T06:18:01.034Z,120.000000
2022-12-03T06:19:01.033Z,105.000000
2022-12-03T06:20:05.775Z,105.000000
2022-12-03T06:21:00.958Z,110.000000
2022-12-03T06:22:01.038Z,110.000000
2022-12-03T06:23:00.972Z,115.000000
2022-12-03T06:24:01.082Z,115.000000
2022-12-03T06:25:07.095Z,125.000000
2022-12-03T06:26:01.075Z,125.000000
2022-12-03T06:27:01.011Z,125.000000
2022-12-03T06:28:01.057Z,127.500000
2022-12-03T06:29:01.011Z,127.500000
2022-12-03T06:30:04.693Z,127.500000
2022-12-03T06:31:01.091Z,115.000000
2022-12-03T06:32:01.082Z,115.000000
2022-12-03T06:33:01.052Z,112.500000
2022-12-03T06:34:01.180Z,112.500000
2022-12-03T06:35:04.550Z,135.000000
2022-12-03T06:36:01.159Z,135.000000
2022-12-03T06:37:01.068Z,135.000000
2022-12-03T06:38:01.144Z,160.000000
2022-12-03T06:39:01.189Z,160.000000
2022-12-03T06:40:05.540Z,160.000000
2022-12-03T06:41:01.103Z,277.500000
2022-12-03T06:42:01.200Z,277.500000
2022-12-03T06:43:01.099Z,277.500000
2022-12-03T06:44:01.148Z,320.000000
2022-12-03T06:45:05.505Z,320.000000
2022-12-03T06:46:01.325Z,110.000000
2022-12-03T06:47:01.245Z,110.000000
2022-12-03T06:48:01.239Z,112.500000
2022-12-03T06:49:01.137Z,112.500000
2022-12-03T06:50:06.341Z,112.500000
2022-12-03T06:51:01.155Z,95.000000
2022-12-03T06:52:01.218Z,95.000000
2022-12-03T06:53:01.150Z,2.500000
2022-12-03T06:54:01.447Z,2.500000
2022-12-03T06:55:04.255Z,2.500000
2022-12-03T06:56:00.263Z,150.000000
2022-12-03T06:57:00.213Z,150.000000
2022-12-03T06:58:00.239Z,110.000000
2022-12-03T06:59:00.194Z,110.000000
2022-12-03T07:00:05.310Z,110.000000
2022-12-03T07:01:00.237Z,120.000000
2022-12-03T07:02:00.373Z,120.000000
2022-12-03T07:03:00.316Z,145.000000
2022-12-03T07:04:00.309Z,145.000000
2022-12-03T07:05:03.624Z,145.000000
2022-12-03T07:06:00.377Z,127.500000
2022-12-03T07:07:00.249Z,127.500000
2022-12-03T07:08:00.428Z,127.500000
2022-12-03T07:09:00.276Z,127.500000
2022-12-03T07:10:05.739Z,127.500000
2022-12-03T07:11:00.290Z,115.000000
2022-12-03T07:12:00.402Z,115.000000
2022-12-03T07:13:00.333Z,115.000000
2022-12-03T07:14:05.030Z,115.000000
2022-12-03T07:15:05.069Z,115.000000
2022-12-03T07:16:00.415Z,125.000000
2022-12-03T07:17:00.335Z,125.000000
2022-12-03T07:18:00.411Z,125.000000
2022-12-03T07:19:00.339Z,75.000000
2022-12-03T07:20:03.862Z,75.000000
2022-12-03T07:21:00.369Z,107.500000
2022-12-03T07:22:00.446Z,107.500000
2022-12-03T07:23:00.373Z,107.500000
2022-12-03T07:24:00.485Z,120.000000
2022-12-03T07:25:03.631Z,120.000000
2022-12-03T07:26:00.455Z,2.500000
2022-12-03T07:27:00.411Z,2.500000
2022-12-03T07:28:00.478Z,2.500000
2022-12-03T07:29:00.447Z,270.000000
2022-12-03T07:30:03.906Z,270.000000
2022-12-03T07:31:00.499Z,252.500000
2022-12-03T07:32:00.497Z,252.500000
2022-12-03T07:33:00.465Z,252.500000
2022-12-03T07:34:00.523Z,130.000000
2022-12-03T07:35:03.755Z,130.000000
2022-12-03T07:36:00.572Z,130.000000
2022-12-03T07:37:00.479Z,122.500000
2022-12-03T07:38:00.538Z,122.500000
2022-12-03T07:39:00.503Z,115.000000
2022-12-03T07:40:04.257Z,115.000000
2022-12-03T07:41:00.497Z,115.000000
2022-12-03T07:42:00.597Z,120.000000
2022-12-03T07:43:00.517Z,120.000000
2022-12-03T07:44:00.607Z,170.000000
2022-12-03T07:45:04.839Z,170.000000
2022-12-03T07:46:00.590Z,170.000000
2022-12-03T07:47:00.619Z,85.000000
2022-12-03T07:48:00.631Z,85.000000
2022-12-03T07:49:00.605Z,125.000000
2022-12-03T07:50:05.061Z,125.000000
2022-12-03T07:51:00.582Z,125.000000
2022-12-03T07:52:00.638Z,117.500000
2022-12-03T07:53:00.585Z,117.500000
2022-12-03T07:54:00.693Z,130.000000
2022-12-03T07:55:04.926Z,130.000000
2022-12-03T07:56:00.665Z,130.000000
2022-12-03T07:57:01.839Z,120.000000
2022-12-03T07:58:00.690Z,120.000000
2022-12-03T07:59:00.608Z,120.000000
2022-12-03T08:00:04.509Z,130.000000
2022-12-03T08:01:00.703Z,130.000000
2022-12-03T08:02:00.758Z,120.000000
2022-12-03T08:03:00.647Z,120.000000
2022-12-03T08:04:00.698Z,97.500000
2022-12-03T08:05:04.864Z,97.500000
2022-12-03T08:06:00.761Z,95.000000
2022-12-03T08:07:00.663Z,95.000000
2022-12-03T08:08:00.785Z,95.000000
2022-12-03T08:09:00.695Z,120.000000
2022-12-03T08:10:05.637Z,120.000000
2022-12-03T08:11:00.694Z,120.000000
2022-12-03T08:12:00.829Z,135.000000
2022-12-03T08:13:00.700Z,135.000000
2022-12-03T08:14:00.804Z,120.000000
2022-12-03T08:15:03.901Z,120.000000
2022-12-03T08:16:00.924Z,110.000000
2022-12-03T08:17:00.787Z,110.000000
2022-12-03T08:18:00.871Z,110.000000
2022-12-03T08:19:00.763Z,102.500000
2022-12-03T08:20:05.320Z,102.500000
2022-12-03T08:21:00.792Z,102.500000
2022-12-03T08:22:01.560Z,107.500000
2022-12-03T08:23:00.782Z,107.500000
2022-12-03T08:24:01.015Z,122.500000
2022-12-03T08:25:03.812Z,122.500000
2022-12-03T08:26:00.873Z,122.500000
2022-12-03T08:27:00.817Z,115.000000
2022-12-03T08:28:00.877Z,115.000000
2022-12-03T08:29:00.808Z,115.000000
2022-12-03T08:30:04.417Z,110.000000
2022-12-03T08:31:00.847Z,110.000000
2022-12-03T08:32:00.987Z,115.000000
2022-12-03T08:33:00.913Z,115.000000
2022-12-03T08:34:00.929Z,115.000000
2022-12-03T08:35:03.900Z,120.000000
2022-12-03T08:36:00.996Z,120.000000
2022-12-03T08:37:00.888Z,110.000000
2022-12-03T08:38:00.967Z,110.000000
2022-12-03T08:39:00.899Z,105.000000
2022-12-03T08:40:04.484Z,105.000000
2022-12-03T08:41:00.921Z,105.000000
2022-12-03T08:42:01.042Z,110.000000
2022-12-03T08:43:00.940Z,110.000000
2022-12-03T08:44:01.001Z,110.000000
2022-12-03T08:45:04.138Z,110.000000
2022-12-03T08:46:01.041Z,110.000000
2022-12-03T08:47:00.938Z,110.000000
2022-12-03T08:48:02.160Z,115.000000
2022-12-03T08:49:00.970Z,115.000000
2022-12-03T08:50:04.748Z,110.000000
2022-12-03T08:51:00.986Z,110.000000
2022-12-03T08:52:01.086Z,110.000000
2022-12-03T08:53:00.989Z,115.000000
2022-12-03T08:54:02.357Z,115.000000
2022-12-03T08:55:03.954Z,45.000000
2022-12-03T08:56:01.705Z,45.000000
2022-12-03T08:57:01.023Z,45.000000
2022-12-03T08:58:01.820Z,105.000000
2022-12-03T08:59:01.021Z,105.000000
2022-12-03T09:00:06.238Z,102.500000
2022-12-03T09:01:01.090Z,102.500000
2022-12-03T09:02:01.135Z,125.000000
2022-12-03T09:03:01.080Z,125.000000
2022-12-03T09:04:01.915Z,125.000000
2022-12-03T09:05:05.788Z,110.000000
2022-12-03T09:06:01.222Z,110.000000
2022-12-03T09:07:01.099Z,110.000000
2022-12-03T09:08:01.276Z,110.000000
2022-12-03T09:09:06.358Z,110.000000
2022-12-03T09:10:04.424Z,115.000000
2022-12-03T09:11:01.144Z,115.000000
2022-12-03T09:12:01.252Z,115.000000
2022-12-03T09:13:01.139Z,105.000000
2022-12-03T09:14:01.198Z,105.000000
2022-12-03T09:15:05.384Z,85.000000
2022-12-03T09:16:01.212Z,85.000000
2022-12-03T09:17:01.228Z,85.000000
2022-12-03T09:18:01.278Z,100.000000
2022-12-03T09:19:01.188Z,100.000000
2022-12-03T09:20:03.840Z,100.000000
2022-12-03T09:21:00.219Z,120.000000
2022-12-03T09:22:00.287Z,120.000000
2022-12-03T09:23:00.209Z,130.000000
2022-12-03T09:24:00.342Z,130.000000
2022-12-03T09:25:04.625Z,132.500000
2022-12-03T09:26:00.320Z,132.500000
2022-12-03T09:27:00.256Z,132.500000
2022-12-03T09:28:00.346Z,120.000000
2022-12-03T09:29:00.271Z,120.000000
2022-12-03T09:30:04.829Z,120.000000
2022-12-03T09:31:00.291Z,97.500000
2022-12-03T09:32:00.404Z,97.500000
2022-12-03T09:33:00.313Z,102.500000
2022-12-03T09:34:00.363Z,102.500000
2022-12-03T09:35:04.845Z,100.000000
2022-12-03T09:36:00.430Z,100.000000
2022-12-03T09:37:00.312Z,100.000000
2022-12-03T09:38:00.387Z,110.000000
2022-12-03T09:39:00.337Z,110.000000
2022-12-03T09:40:05.085Z,110.000000
2022-12-03T09:41:00.345Z,100.000000
2022-12-03T09:42:00.459Z,100.000000
2022-12-03T09:43:00.371Z,100.000000
2022-12-03T09:44:04.880Z,100.000000
2022-12-03T09:45:04.953Z,100.000000
2022-12-03T09:46:00.513Z,92.500000
2022-12-03T09:47:00.398Z,92.500000
2022-12-03T09:48:00.503Z,112.500000
2022-12-03T09:49:00.416Z,112.500000
2022-12-03T09:50:03.919Z,112.500000
2022-12-03T09:51:00.464Z,112.500000
2022-12-03T09:52:00.483Z,112.500000
2022-12-03T09:53:00.434Z,125.000000
2022-12-03T09:54:00.530Z,125.000000
2022-12-03T09:55:03.742Z,105.000000
2022-12-03T09:56:00.543Z,105.000000
2022-12-03T09:57:00.476Z,95.000000
2022-12-03T09:58:00.532Z,95.000000
2022-12-03T09:59:00.465Z,95.000000
2022-12-03T10:00:06.981Z,125.000000
2022-12-03T10:01:00.627Z,125.000000
2022-12-03T10:02:00.684Z,125.000000
2022-12-03T10:03:00.525Z,125.000000
2022-12-03T10:04:00.637Z,125.000000
2022-12-03T10:05:03.950Z,125.000000
2022-12-03T10:06:00.623Z,125.000000
2022-12-03T10:07:00.559Z,125.000000
2022-12-03T10:08:00.694Z,117.500000
2022-12-03T10:09:00.555Z,117.500000
2022-12-03T10:10:04.003Z,117.500000
2022-12-03T10:11:00.606Z,117.500000
2022-12-03T10:12:00.658Z,117.500000
2022-12-03T10:13:00.581Z,117.500000
2022-12-03T10:14:00.635Z,82.500000
2022-12-03T10:15:04.829Z,82.500000
2022-12-03T10:16:00.675Z,107.500000
2022-12-03T10:17:00.809Z,107.500000
2022-12-03T10:18:00.677Z,115.000000
2022-12-03T10:19:00.619Z,115.000000
2022-12-03T10:20:05.046Z,115.000000
2022-12-03T10:21:00.637Z,132.500000
2022-12-03T10:22:00.708Z,132.500000
2022-12-03T10:23:00.683Z,115.000000
2022-12-03T10:24:00.732Z,115.000000
2022-12-03T10:25:03.659Z,115.000000
2022-12-03T10:26:00.724Z,85.000000
2022-12-03T10:27:00.688Z,85.000000
2022-12-03T10:28:00.745Z,85.000000
2022-12-03T10:29:00.700Z,85.000000
2022-12-03T10:30:04.190Z,85.000000
2022-12-03T10:31:00.779Z,140.000000
2022-12-03T10:32:00.760Z,140.000000
2022-12-03T10:33:00.704Z,140.000000
2022-12-03T10:34:00.782Z,110.000000
2022-12-03T10:35:03.811Z,110.000000
2022-12-03T10:36:00.807Z,110.000000
2022-12-03T10:37:00.717Z,92.500000
2022-12-03T10:38:00.814Z,92.500000
2022-12-03T10:39:00.773Z,115.000000
2022-12-03T10:40:05.236Z,115.000000
2022-12-03T10:41:00.750Z,125.000000
2022-12-03T10:42:00.837Z,125.000000
2022-12-03T10:43:00.759Z,115.000000
2022-12-03T10:44:00.817Z,115.000000
2022-12-03T10:45:04.236Z,115.000000
2022-12-03T10:46:04.283Z,112.500000
2022-12-03T10:47:00.988Z,112.500000
2022-12-03T10:48:00.866Z,112.500000
2022-12-03T10:49:00.809Z,92.500000
2022-12-03T10:50:04.304Z,92.500000
2022-12-03T10:51:00.831Z,102.500000
2022-12-03T10:52:00.914Z,102.500000
2022-12-03T10:53:00.818Z,92.500000
2022-12-03T10:54:00.938Z,92.500000
2022-12-03T10:55:07.421Z,92.500000
2022-12-03T10:56:00.923Z,357.500000
2022-12-03T10:57:00.869Z,357.500000
2022-12-03T10:58:00.983Z,357.500000
2022-12-03T10:59:00.860Z,32.500000
2022-12-03T11:00:04.195Z,32.500000
2022-12-03T11:01:00.987Z,32.500000
2022-12-03T11:02:01.116Z,32.500000
2022-12-03T11:03:00.932Z,32.500000
2022-12-03T11:04:01.110Z,130.000000
2022-12-03T11:05:05.715Z,130.000000
2022-12-03T11:06:01.012Z,117.500000
2022-12-03T11:07:00.954Z,117.500000